createdAt,value
2018-03-11T00:00:31.712Z,923.29
2018-03-11T00:02:03.531Z,923.30
2018-03-11T00:03:35.351Z,923.27
2018-03-11T00:05:07.160Z,923.26
2018-03-11T00:06:38.977Z,923.25
2018-03-11T00:08:10.794Z,923.25
2018-03-11T00:09:42.619Z,923.22
2018-03-11T00:11:14.428Z,923.25
2018-03-11T00:12:46.250Z,923.24
2018-03-11T00:14:18.157Z,923.22
2018-03-11T00:15:49.872Z,923.21
2018-03-11T00:17:21.687Z,923.23
2018-03-11T00:18:53.503Z,923.26
2018-03-11T00:20:25.359Z,923.29
2018-03-11T00:21:57.135Z,923.29
2018-03-11T00:23:28.949Z,923.29
2018-03-11T00:25:00.766Z,923.25
2018-03-11T00:26:32.582Z,923.24
2018-03-11T00:28:04.397Z,923.24
2018-03-11T00:29:36.214Z,923.31
2018-03-11T00:31:08.029Z,923.36
2018-03-11T00:32:40.708Z,923.44
2018-03-11T00:34:11.661Z,923.45
2018-03-11T00:35:43.476Z,923.42
2018-03-11T00:37:15.293Z,923.37
2018-03-11T00:38:47.108Z,923.32
2018-03-11T00:40:18.924Z,923.30
2018-03-11T00:41:50.739Z,923.28
2018-03-11T00:43:22.555Z,923.25
2018-03-11T00:44:54.370Z,923.27
2018-03-11T00:46:26.187Z,923.27
2018-03-11T00:47:58.002Z,923.25
2018-03-11T00:49:29.822Z,923.29
2018-03-11T00:51:01.735Z,923.29
2018-03-11T00:52:33.455Z,923.31
2018-03-11T00:54:05.278Z,923.30
2018-03-11T00:55:37.082Z,923.32
2018-03-11T00:57:08.898Z,923.34
2018-03-11T00:58:40.716Z,923.30
2018-03-11T01:00:12.530Z,923.32
2018-03-11T01:01:44.345Z,923.34
2018-03-11T01:03:16.161Z,923.35
2018-03-11T01:04:47.977Z,923.33
2018-03-11T01:06:19.799Z,923.30
2018-03-11T01:07:51.608Z,923.29
2018-03-11T01:09:23.525Z,923.28
2018-03-11T01:10:55.246Z,923.31
2018-03-11T01:12:27.073Z,923.32
2018-03-11T01:13:58.870Z,923.23
2018-03-11T01:15:30.686Z,923.23
2018-03-11T01:17:02.502Z,923.26
2018-03-11T01:18:34.317Z,923.21
2018-03-11T01:20:06.133Z,923.22
2018-03-11T01:21:37.949Z,923.24
2018-03-11T01:23:09.765Z,923.24
2018-03-11T01:24:41.582Z,923.27
2018-03-11T01:26:13.395Z,923.29
2018-03-11T01:27:45.312Z,923.31
2018-03-11T01:29:17.039Z,923.30
2018-03-11T01:30:48.842Z,923.33
2018-03-11T01:32:20.709Z,923.31
2018-03-11T01:33:52.475Z,923.36
2018-03-11T01:35:24.290Z,923.33
2018-03-11T01:36:56.107Z,923.34
2018-03-11T01:38:27.922Z,923.28
2018-03-11T01:39:59.738Z,923.22
2018-03-11T01:41:31.556Z,923.21
2018-03-11T01:43:03.370Z,923.09
2018-03-11T01:44:35.186Z,923.03
2018-03-11T01:46:07.101Z,923.01
2018-03-11T01:47:38.828Z,922.94
2018-03-11T01:49:10.636Z,922.87
2018-03-11T01:50:42.448Z,922.91
2018-03-11T01:52:14.265Z,922.87
2018-03-11T01:53:46.081Z,922.85
2018-03-11T01:55:17.895Z,922.86
2018-03-11T01:56:49.712Z,922.78
2018-03-11T01:58:21.768Z,922.77
2018-03-11T01:59:53.342Z,922.77
2018-03-11T02:01:25.158Z,922.72
2018-03-11T02:02:56.973Z,922.76
2018-03-11T02:04:28.939Z,922.73
2018-03-11T02:06:00.605Z,922.75
2018-03-11T02:07:32.420Z,922.67
2018-03-11T02:09:04.235Z,922.69
2018-03-11T02:10:36.054Z,922.71
2018-03-11T02:12:07.866Z,922.73
2018-03-11T02:13:39.682Z,922.73
2018-03-11T02:15:11.498Z,922.68
2018-03-11T02:16:43.313Z,922.68
2018-03-11T02:18:15.149Z,922.66
2018-03-11T02:19:46.944Z,922.65
2018-03-11T02:21:18.759Z,922.64
2018-03-11T02:22:51.376Z,922.64
2018-03-11T02:24:22.390Z,922.64
2018-03-11T02:25:54.205Z,922.60
2018-03-11T02:27:26.021Z,922.63
2018-03-11T02:28:57.840Z,922.63
2018-03-11T02:30:29.652Z,922.63
2018-03-11T02:32:01.470Z,922.65
2018-03-11T02:33:33.354Z,922.62
2018-03-11T02:35:05.097Z,922.60
2018-03-11T02:36:36.912Z,922.63
2018-03-11T02:38:08.730Z,922.62
2018-03-11T02:39:40.543Z,922.52
2018-03-11T02:41:12.457Z,922.50
2018-03-11T02:42:44.173Z,922.50
2018-03-11T02:44:15.986Z,922.50
2018-03-11T02:45:47.801Z,922.46
2018-03-11T02:47:19.617Z,922.46
2018-03-11T02:48:51.431Z,922.47
2018-03-11T02:50:23.245Z,922.46
2018-03-11T02:51:55.060Z,922.49
2018-03-11T02:53:26.875Z,922.46
2018-03-11T02:54:58.690Z,922.45
2018-03-11T02:56:30.506Z,922.47
2018-03-11T02:58:02.320Z,922.43
2018-03-11T02:59:34.235Z,922.42
2018-03-11T03:01:05.949Z,922.42
2018-03-11T03:02:37.765Z,922.41
2018-03-11T03:04:09.580Z,922.35
2018-03-11T03:05:41.395Z,922.36
2018-03-11T03:07:13.210Z,922.37
2018-03-11T03:08:45.027Z,922.39
2018-03-11T03:10:16.840Z,922.35
2018-03-11T03:11:48.755Z,922.40
2018-03-11T03:13:20.472Z,922.38
2018-03-11T03:14:52.284Z,922.38
2018-03-11T03:16:24.104Z,922.37
2018-03-11T03:17:56.016Z,922.35
2018-03-11T03:19:27.731Z,922.34
2018-03-11T03:20:59.546Z,922.34
2018-03-11T03:22:31.362Z,922.35
2018-03-11T03:24:03.176Z,922.36
2018-03-11T03:25:34.992Z,922.32
2018-03-11T03:27:06.807Z,922.29
2018-03-11T03:28:38.622Z,922.22
2018-03-11T03:30:10.438Z,922.23
2018-03-11T03:31:42.254Z,922.22
2018-03-11T03:33:14.067Z,922.24
2018-03-11T03:34:45.882Z,922.20
2018-03-11T03:36:17.802Z,922.19
2018-03-11T03:37:49.512Z,922.18
2018-03-11T03:39:21.326Z,922.15
2018-03-11T03:40:53.141Z,922.22
2018-03-11T03:42:25.056Z,922.18
2018-03-11T03:43:56.771Z,922.09
2018-03-11T03:45:28.585Z,922.07
2018-03-11T03:47:00.401Z,922.06
2018-03-11T03:48:32.215Z,922.07
2018-03-11T03:50:04.032Z,922.07
2018-03-11T03:51:35.847Z,921.99
2018-03-11T03:53:07.660Z,921.98
2018-03-11T03:54:39.575Z,921.96
2018-03-11T03:56:11.290Z,921.96
2018-03-11T03:57:43.103Z,921.94
2018-03-11T03:59:14.918Z,921.93
2018-03-11T04:00:46.734Z,921.84
2018-03-11T04:02:18.548Z,921.82
2018-03-11T04:03:50.361Z,921.79
2018-03-11T04:05:22.176Z,921.80
2018-03-11T04:06:53.991Z,921.79
2018-03-11T04:08:25.805Z,921.80
2018-03-11T04:09:57.620Z,921.84
2018-03-11T04:11:29.435Z,921.77
2018-03-11T04:13:01.450Z,921.76
2018-03-11T04:14:33.063Z,921.70
2018-03-11T04:16:04.878Z,921.70
2018-03-11T04:17:36.693Z,921.73
2018-03-11T04:19:08.507Z,921.73
2018-03-11T04:20:40.323Z,921.72
2018-03-11T04:22:12.137Z,921.75
2018-03-11T04:23:43.952Z,921.71
2018-03-11T04:25:15.766Z,921.69
2018-03-11T04:26:47.581Z,921.64
2018-03-11T04:28:19.395Z,921.67
2018-03-11T04:29:51.210Z,921.63
2018-03-11T04:31:23.124Z,921.56
2018-03-11T04:32:54.839Z,921.55
2018-03-11T04:34:26.653Z,921.59
2018-03-11T04:35:58.468Z,921.55
2018-03-11T04:37:30.287Z,921.51
2018-03-11T04:39:02.098Z,921.46
2018-03-11T04:40:33.911Z,921.45
2018-03-11T04:42:05.726Z,921.51
2018-03-11T04:43:37.640Z,921.52
2018-03-11T04:45:09.354Z,921.51
2018-03-11T04:46:41.168Z,921.50
2018-03-11T04:48:12.982Z,921.48
2018-03-11T04:49:44.901Z,921.44
2018-03-11T04:51:16.613Z,921.45
2018-03-11T04:52:48.425Z,921.43
2018-03-11T04:54:20.240Z,921.41
2018-03-11T04:55:52.208Z,921.37
2018-03-11T04:57:23.869Z,921.38
2018-03-11T04:58:55.684Z,921.36
2018-03-11T05:00:27.498Z,921.38
2018-03-11T05:01:59.313Z,921.38
2018-03-11T05:03:31.128Z,921.37
2018-03-11T05:05:02.943Z,921.34
2018-03-11T05:06:34.757Z,921.31
2018-03-11T05:08:06.712Z,921.33
2018-03-11T05:09:38.386Z,921.40
2018-03-11T05:11:10.202Z,921.30
2018-03-11T05:12:42.015Z,921.27
2018-03-11T05:14:13.930Z,921.19
2018-03-11T05:15:45.643Z,921.18
2018-03-11T05:17:17.459Z,921.15
2018-03-11T05:18:49.273Z,921.13
2018-03-11T05:20:21.238Z,921.12
2018-03-11T05:21:52.902Z,921.08
2018-03-11T05:23:24.718Z,921.09
2018-03-11T05:24:56.530Z,921.11
2018-03-11T05:26:28.445Z,921.07
2018-03-11T05:28:00.159Z,921.02
2018-03-11T05:29:31.975Z,921.01
2018-03-11T05:31:03.787Z,920.95
2018-03-11T05:32:35.602Z,920.93
2018-03-11T05:34:07.416Z,920.92
2018-03-11T05:35:39.230Z,920.90
2018-03-11T05:37:11.044Z,920.92
2018-03-11T05:38:43.009Z,920.87
2018-03-11T05:40:14.672Z,920.86
2018-03-11T05:41:46.487Z,920.82
2018-03-11T05:43:18.302Z,920.76
2018-03-11T05:44:50.367Z,920.76
2018-03-11T05:46:21.931Z,920.75
2018-03-11T05:47:53.745Z,920.73
2018-03-11T05:49:25.559Z,920.71
2018-03-11T05:50:57.374Z,920.75
2018-03-11T05:52:29.188Z,920.76
2018-03-11T05:54:01.002Z,920.76
2018-03-11T05:55:32.818Z,920.73
2018-03-11T05:57:04.631Z,920.76
2018-03-11T05:58:36.446Z,920.74
2018-03-11T06:00:08.260Z,920.76
2018-03-11T06:01:40.076Z,920.74
2018-03-11T06:03:11.988Z,920.67
2018-03-11T06:04:43.702Z,920.68
2018-03-11T06:06:15.517Z,920.70
2018-03-11T06:07:47.332Z,920.68
2018-03-11T06:09:19.146Z,920.70
2018-03-11T06:10:50.963Z,920.66
2018-03-11T06:12:22.775Z,920.69
2018-03-11T06:13:54.589Z,920.70
2018-03-11T06:15:26.506Z,920.69
2018-03-11T06:16:58.218Z,920.72
2018-03-11T06:18:30.033Z,920.72
2018-03-11T06:20:01.846Z,920.70
2018-03-11T06:21:33.761Z,920.75
2018-03-11T06:23:05.475Z,920.74
2018-03-11T06:24:37.290Z,920.70
2018-03-11T06:26:09.107Z,920.69
2018-03-11T06:27:40.919Z,920.71
2018-03-11T06:29:12.734Z,920.71
2018-03-11T06:30:44.549Z,920.72
2018-03-11T06:32:16.364Z,920.75
2018-03-11T06:33:48.179Z,920.75
2018-03-11T06:35:19.994Z,920.80
2018-03-11T06:36:51.809Z,920.85
2018-03-11T06:38:23.623Z,920.85
2018-03-11T06:39:55.542Z,920.85
2018-03-11T06:41:27.253Z,920.85
2018-03-11T06:42:59.070Z,920.87
2018-03-11T06:44:30.883Z,920.84
2018-03-11T06:46:02.947Z,920.82
2018-03-11T06:47:34.513Z,920.83
2018-03-11T06:49:06.327Z,920.80
2018-03-11T06:50:38.144Z,920.81
2018-03-11T06:52:10.062Z,920.82
2018-03-11T06:53:41.769Z,920.78
2018-03-11T06:55:13.584Z,920.77
2018-03-11T06:56:45.397Z,920.80
2018-03-11T06:58:17.312Z,920.76
2018-03-11T06:59:49.027Z,920.77
2018-03-11T07:01:20.841Z,920.77
2018-03-11T07:02:52.656Z,920.80
2018-03-11T07:04:24.624Z,920.78
2018-03-11T07:05:56.284Z,920.77
2018-03-11T07:07:28.098Z,920.83
2018-03-11T07:08:59.916Z,920.78
2018-03-11T07:10:31.727Z,920.76
2018-03-11T07:12:03.542Z,920.78
2018-03-11T07:13:35.357Z,920.77
2018-03-11T07:15:07.171Z,920.75
2018-03-11T07:16:39.338Z,920.83
2018-03-11T07:18:10.802Z,920.82
2018-03-11T07:19:42.615Z,920.79
2018-03-11T07:21:14.430Z,920.81
2018-03-11T07:22:46.245Z,920.81
2018-03-11T07:24:18.060Z,920.82
2018-03-11T07:25:49.875Z,920.83
2018-03-11T07:27:21.691Z,920.83
2018-03-11T07:28:53.506Z,920.82
2018-03-11T07:30:25.321Z,920.81
2018-03-11T07:31:57.136Z,920.77
2018-03-11T07:33:28.952Z,920.77
2018-03-11T07:35:00.968Z,920.78
2018-03-11T07:36:32.582Z,920.73
2018-03-11T07:38:04.398Z,920.72
2018-03-11T07:39:36.213Z,920.66
2018-03-11T07:41:08.029Z,920.74
2018-03-11T07:42:39.843Z,920.67
2018-03-11T07:44:11.659Z,920.69
2018-03-11T07:45:43.474Z,920.71
2018-03-11T07:47:15.391Z,920.73
2018-03-11T07:48:47.102Z,920.72
2018-03-11T07:50:18.917Z,920.71
2018-03-11T07:51:50.732Z,920.71
2018-03-11T07:53:22.648Z,920.74
2018-03-11T07:54:54.362Z,920.74
2018-03-11T07:56:26.177Z,920.76
2018-03-11T07:57:57.992Z,920.76
2018-03-11T07:59:29.958Z,920.76
2018-03-11T08:01:01.623Z,920.76
2018-03-11T08:02:33.438Z,920.80
2018-03-11T08:04:05.252Z,920.79
2018-03-11T08:05:37.072Z,920.84
2018-03-11T08:07:08.883Z,920.82
2018-03-11T08:08:40.699Z,920.86
2018-03-11T08:10:12.513Z,920.86
2018-03-11T08:11:44.579Z,920.90
2018-03-11T08:13:16.144Z,920.83
2018-03-11T08:14:47.959Z,920.79
2018-03-11T08:16:19.774Z,920.77
2018-03-11T08:17:51.689Z,920.80
2018-03-11T08:19:23.408Z,920.83
2018-03-11T08:20:55.219Z,920.82
2018-03-11T08:22:27.035Z,920.87
2018-03-11T08:23:58.849Z,920.85
2018-03-11T08:25:30.664Z,920.89
2018-03-11T08:27:02.479Z,920.87
2018-03-11T08:28:34.294Z,920.87
2018-03-11T08:30:06.209Z,920.87
2018-03-11T08:31:37.924Z,920.83
2018-03-11T08:33:09.739Z,920.85
2018-03-11T08:34:41.554Z,920.84
2018-03-11T08:36:13.368Z,920.88
2018-03-11T08:37:45.183Z,920.89
2018-03-11T08:39:16.998Z,920.92
2018-03-11T08:40:48.813Z,920.97
2018-03-11T08:42:20.778Z,920.98
2018-03-11T08:43:52.442Z,921.00
2018-03-11T08:45:24.257Z,921.04
2018-03-11T08:46:56.072Z,921.08
2018-03-11T08:48:28.087Z,921.04
2018-03-11T08:49:59.701Z,921.07
2018-03-11T08:51:31.522Z,921.09
2018-03-11T08:53:03.330Z,921.11
2018-03-11T08:54:35.297Z,921.14
2018-03-11T08:56:06.959Z,921.13
2018-03-11T08:57:38.775Z,921.18
2018-03-11T08:59:10.588Z,921.16
2018-03-11T09:00:42.403Z,921.20
2018-03-11T09:02:14.218Z,921.21
2018-03-11T09:03:46.035Z,921.15
2018-03-11T09:05:17.846Z,921.09
2018-03-11T09:06:49.760Z,921.02
2018-03-11T09:08:21.476Z,920.99
2018-03-11T09:09:53.290Z,921.00
2018-03-11T09:11:25.105Z,920.98
2018-03-11T09:12:56.922Z,921.02
2018-03-11T09:14:28.735Z,921.09
2018-03-11T09:16:00.548Z,921.14
2018-03-11T09:17:32.361Z,921.20
2018-03-11T09:19:04.276Z,921.17
2018-03-11T09:20:35.990Z,921.26
2018-03-11T09:22:07.806Z,921.28
2018-03-11T09:23:39.619Z,921.28
2018-03-11T09:25:11.535Z,921.28
2018-03-11T09:26:43.281Z,921.30
2018-03-11T09:28:15.066Z,921.33
2018-03-11T09:29:46.880Z,921.37
2018-03-11T09:31:18.695Z,921.40
2018-03-11T09:32:50.510Z,921.39
2018-03-11T09:34:22.325Z,921.40
2018-03-11T09:35:54.141Z,921.46
2018-03-11T09:37:25.956Z,921.53
2018-03-11T09:38:57.771Z,921.59
2018-03-11T09:40:29.587Z,921.68
2018-03-11T09:42:01.402Z,921.74
2018-03-11T09:43:33.359Z,921.78
2018-03-11T09:45:05.035Z,921.74
2018-03-11T09:46:36.847Z,921.77
2018-03-11T09:48:08.664Z,921.81
2018-03-11T09:49:40.728Z,921.80
2018-03-11T09:51:12.293Z,921.84
2018-03-11T09:52:44.108Z,921.84
2018-03-11T09:54:15.924Z,921.83
2018-03-11T09:55:47.890Z,921.85
2018-03-11T09:57:19.554Z,921.88
2018-03-11T09:58:51.370Z,921.89
2018-03-11T10:00:23.186Z,921.85
2018-03-11T10:03:27.118Z,921.91
2018-03-11T10:04:58.938Z,921.95
2018-03-11T10:06:30.491Z,922.01
2018-03-11T10:08:02.264Z,922.07
2018-03-11T10:09:34.079Z,922.11
2018-03-11T10:11:05.894Z,922.14
2018-03-11T10:12:37.713Z,922.12
2018-03-11T10:14:09.528Z,922.20
2018-03-11T10:15:41.345Z,922.22
2018-03-11T10:17:13.161Z,922.25
2018-03-11T10:18:44.978Z,922.27
2018-03-11T10:20:17.301Z,922.28
2018-03-11T10:21:48.984Z,922.34
2018-03-11T10:23:20.430Z,922.36
2018-03-11T10:24:52.247Z,922.41
2018-03-11T10:26:24.067Z,922.36
2018-03-11T10:27:56.031Z,922.41
2018-03-11T10:30:59.516Z,922.42
2018-03-11T10:34:03.151Z,922.51
2018-03-11T10:35:34.968Z,922.53
2018-03-11T10:38:38.603Z,922.55
2018-03-11T10:40:10.673Z,922.57
2018-03-11T10:41:42.239Z,922.54
2018-03-11T10:43:14.057Z,922.55
2018-03-11T10:44:45.875Z,922.49
2018-03-11T10:46:17.693Z,922.54
2018-03-11T10:47:49.512Z,922.57
2018-03-11T10:49:21.330Z,922.60
2018-03-11T10:50:53.221Z,922.69
2018-03-11T10:52:25.067Z,922.78
2018-03-11T10:55:28.606Z,922.71
2018-03-11T10:57:00.425Z,922.76
2018-03-11T10:58:33.023Z,922.80
2018-03-11T11:00:04.063Z,922.80
2018-03-11T11:01:35.885Z,922.88
2018-03-11T11:03:07.700Z,922.82
2018-03-11T11:04:39.520Z,922.88
2018-03-11T11:06:11.339Z,922.90
2018-03-11T11:07:43.158Z,922.96
2018-03-11T11:09:14.979Z,922.99
2018-03-11T11:10:46.796Z,923.02
2018-03-11T11:12:18.622Z,923.10
2018-03-11T11:13:50.436Z,923.07
2018-03-11T11:15:22.256Z,923.05
2018-03-11T11:16:54.175Z,923.13
2018-03-11T11:18:25.896Z,923.14
2018-03-11T11:19:57.716Z,923.18
2018-03-11T11:21:29.536Z,923.16
2018-03-11T11:23:01.607Z,923.10
2018-03-11T11:24:33.231Z,923.08
2018-03-11T11:26:04.999Z,923.20
2018-03-11T11:27:36.820Z,923.30
2018-03-11T11:29:09.299Z,923.40
2018-03-11T11:30:40.465Z,923.36
2018-03-11T11:32:12.286Z,923.33
2018-03-11T11:33:44.108Z,923.24
2018-03-11T11:35:16.132Z,923.23
2018-03-11T11:36:47.752Z,923.30
2018-03-11T11:38:19.573Z,923.33
2018-03-11T11:39:51.699Z,923.33
2018-03-11T11:41:23.218Z,923.37
2018-03-11T11:42:55.344Z,923.42
2018-03-11T11:44:26.863Z,923.46
2018-03-11T11:45:58.684Z,923.53
2018-03-11T11:47:30.508Z,923.58
2018-03-11T11:49:02.331Z,923.50
2018-03-11T11:50:34.204Z,923.48
2018-03-11T11:52:05.978Z,923.50
2018-03-11T11:53:38.253Z,923.50
2018-03-11T11:56:41.451Z,923.40
2018-03-11T11:59:45.401Z,923.52
2018-03-11T12:01:16.923Z,923.49
2018-03-11T12:02:48.746Z,923.48
2018-03-11T12:04:20.571Z,923.47
2018-03-11T12:05:52.395Z,923.40
2018-03-11T12:07:24.219Z,923.35
2018-03-11T12:08:56.043Z,923.35
2018-03-11T12:10:27.867Z,923.33
2018-03-11T12:11:59.792Z,923.35
2018-03-11T12:15:03.341Z,923.37
2018-03-11T12:16:35.166Z,923.39
2018-03-11T12:18:07.197Z,923.40
2018-03-11T12:19:38.815Z,923.46
2018-03-11T12:21:10.640Z,923.41
2018-03-11T12:22:42.466Z,923.44
2018-03-11T12:24:14.394Z,923.49
2018-03-11T12:25:46.116Z,923.51
2018-03-11T12:27:18.000Z,923.49
2018-03-11T12:28:49.822Z,923.46
2018-03-11T12:30:21.749Z,923.44
2018-03-11T12:31:53.417Z,923.45
2018-03-11T12:33:25.243Z,923.45
2018-03-11T12:34:57.069Z,923.39
2018-03-11T12:36:28.894Z,923.39
2018-03-11T12:38:00.719Z,923.38
2018-03-11T12:39:32.545Z,923.38
2018-03-11T12:41:04.382Z,923.39
2018-03-11T12:42:36.196Z,923.36
2018-03-11T12:44:08.025Z,923.32
2018-03-11T12:45:39.848Z,923.34
2018-03-11T12:48:43.602Z,923.34
2018-03-11T12:51:47.154Z,923.39
2018-03-11T12:53:19.285Z,923.38
2018-03-11T12:54:51.059Z,923.40
2018-03-11T12:56:22.636Z,923.43
2018-03-11T12:57:54.462Z,923.34
2018-03-11T12:59:26.295Z,923.42
2018-03-11T13:00:58.117Z,923.41
2018-03-11T13:02:29.944Z,923.37
2018-03-11T13:04:01.771Z,923.38
2018-03-11T13:05:33.598Z,923.31
2018-03-11T13:07:05.876Z,923.30
2018-03-11T13:10:09.082Z,923.30
2018-03-11T13:11:41.211Z,923.24
2018-03-11T13:13:12.844Z,923.23
2018-03-11T13:14:44.562Z,923.16
2018-03-11T13:16:16.390Z,923.20
2018-03-11T13:17:48.217Z,923.15
2018-03-11T13:19:20.046Z,923.19
2018-03-11T13:20:51.873Z,923.14
2018-03-11T13:22:23.710Z,923.14
2018-03-11T13:23:55.732Z,923.11
2018-03-11T13:25:27.756Z,923.14
2018-03-11T13:26:59.385Z,923.11
2018-03-11T13:28:31.315Z,923.09
2018-03-11T13:30:02.840Z,923.02
2018-03-11T13:31:34.667Z,923.01
2018-03-11T13:33:06.525Z,922.93
2018-03-11T13:34:38.323Z,922.88
2018-03-11T13:36:10.157Z,922.84
2018-03-11T13:37:41.982Z,922.85
2018-03-11T13:39:13.811Z,922.83
2018-03-11T13:40:45.641Z,922.78
2018-03-11T13:42:17.470Z,922.75
2018-03-11T13:45:21.232Z,922.81
2018-03-11T13:46:53.266Z,922.79
2018-03-11T13:48:24.790Z,922.73
2018-03-11T13:49:56.620Z,922.76
2018-03-11T13:51:28.450Z,922.77
2018-03-11T13:53:00.280Z,922.78
2018-03-11T13:54:32.109Z,922.76
2018-03-11T13:56:03.938Z,922.80
2018-03-11T13:57:36.028Z,922.77
2018-03-11T13:59:07.598Z,922.79
2018-03-11T14:00:39.427Z,922.82
2018-03-11T14:03:43.188Z,922.79
2018-03-11T14:05:14.915Z,922.68
2018-03-11T14:06:46.745Z,922.66
2018-03-11T14:08:18.580Z,922.60
2018-03-11T14:09:50.404Z,922.59
2018-03-11T14:11:22.410Z,922.61
2018-03-11T14:12:54.066Z,922.57
2018-03-11T14:14:25.904Z,922.56
2018-03-11T14:15:57.725Z,922.52
2018-03-11T14:17:29.554Z,922.54
2018-03-11T14:19:01.385Z,922.57
2018-03-11T14:20:33.214Z,922.60
2018-03-11T14:22:05.145Z,922.62
2018-03-11T14:23:36.876Z,922.53
2018-03-11T14:25:08.708Z,922.52
2018-03-11T14:26:40.537Z,922.57
2018-03-11T14:28:12.619Z,922.53
2018-03-11T14:29:44.199Z,922.49
2018-03-11T14:31:16.031Z,922.50
2018-03-11T14:32:47.863Z,922.51
2018-03-11T14:35:51.626Z,922.38
2018-03-11T14:37:23.357Z,922.37
2018-03-11T14:38:55.695Z,922.36
2018-03-11T14:40:27.326Z,922.33
2018-03-11T14:41:58.956Z,922.34
2018-03-11T14:43:30.692Z,922.27
2018-03-11T14:45:03.478Z,922.25
2018-03-11T14:46:34.351Z,922.24
2018-03-11T14:48:06.185Z,922.28
2018-03-11T14:49:38.016Z,922.23
2018-03-11T14:51:09.848Z,922.25
2018-03-11T14:52:41.679Z,922.25
2018-03-11T14:54:13.510Z,922.23
2018-03-11T14:57:17.173Z,922.22
2018-03-11T14:58:49.064Z,922.19
2018-03-11T15:01:52.866Z,922.23
2018-03-11T15:03:24.497Z,922.16
2018-03-11T15:04:56.327Z,922.21
2018-03-11T15:06:28.159Z,922.14
2018-03-11T15:08:00.924Z,922.08
2018-03-11T15:09:31.821Z,922.10
2018-03-11T15:11:03.656Z,922.05
2018-03-11T15:12:35.486Z,921.96
2018-03-11T15:15:39.147Z,921.98
2018-03-11T15:17:11.506Z,922.04
2018-03-11T15:20:14.638Z,921.96
2018-03-11T15:21:46.574Z,922.02
2018-03-11T15:23:18.301Z,921.98
2018-03-11T15:24:50.134Z,921.94
2018-03-11T15:26:21.965Z,921.87
2018-03-11T15:27:53.799Z,921.89
2018-03-11T15:29:25.629Z,921.87
2018-03-11T15:30:57.462Z,921.85
2018-03-11T15:32:29.296Z,921.87
2018-03-11T15:34:01.433Z,921.89
2018-03-11T15:35:32.967Z,921.91
2018-03-11T15:37:04.845Z,921.87
2018-03-11T15:38:36.628Z,921.78
2018-03-11T15:40:09.079Z,921.85
2018-03-11T15:41:40.293Z,921.77
2018-03-11T15:43:12.124Z,921.66
2018-03-11T15:44:43.956Z,921.60
2018-03-11T15:46:15.788Z,921.62
2018-03-11T15:47:47.618Z,921.63
2018-03-11T15:49:19.448Z,921.58
2018-03-11T15:52:23.108Z,921.71
2018-03-11T15:53:54.937Z,921.68
2018-03-11T15:55:26.765Z,921.68
2018-03-11T15:56:58.595Z,921.61
2018-03-11T15:58:30.524Z,921.54
2018-03-11T16:00:02.558Z,921.56
2018-03-11T16:01:34.084Z,921.49
2018-03-11T16:03:05.915Z,921.43
2018-03-11T16:04:37.846Z,921.49
2018-03-11T16:06:09.576Z,921.38
2018-03-11T16:07:41.408Z,921.49
2018-03-11T16:10:45.069Z,921.40
2018-03-11T16:12:16.901Z,921.40
2018-03-11T16:13:48.768Z,921.35
2018-03-11T16:15:20.564Z,921.32
2018-03-11T16:16:52.496Z,921.26
2018-03-11T16:18:24.230Z,921.23
2018-03-11T16:19:56.060Z,921.20
2018-03-11T16:21:27.893Z,921.18
2018-03-11T16:22:59.725Z,921.18
2018-03-11T16:24:39.615Z,921.18
2018-03-11T16:26:03.393Z,921.12
2018-03-11T16:27:35.427Z,921.05
2018-03-11T16:29:07.363Z,921.02
2018-03-11T16:32:10.722Z,921.12
2018-03-11T16:35:14.789Z,920.95
2018-03-11T16:36:46.215Z,920.95
2018-03-11T16:38:18.046Z,920.98
2018-03-11T16:39:49.877Z,921.00
2018-03-11T16:41:21.861Z,920.98
2018-03-11T16:42:53.744Z,920.92
2018-03-11T16:44:25.373Z,920.87
2018-03-11T16:45:57.206Z,920.85
2018-03-11T16:47:29.036Z,920.85
2018-03-11T16:49:00.868Z,920.85
2018-03-11T16:50:32.703Z,920.89
2018-03-11T16:52:04.545Z,920.93
2018-03-11T16:53:36.465Z,920.87
2018-03-11T16:55:08.403Z,920.79
2018-03-11T16:56:40.028Z,920.79
2018-03-11T16:58:11.861Z,920.76
2018-03-11T16:59:43.692Z,920.74
2018-03-11T17:01:15.525Z,920.76
2018-03-11T17:02:47.358Z,920.67
2018-03-11T17:04:19.190Z,920.65
2018-03-11T17:05:51.125Z,920.74
2018-03-11T17:08:54.686Z,920.61
2018-03-11T17:10:26.515Z,920.67
2018-03-11T17:11:58.648Z,920.62
2018-03-11T17:13:30.178Z,920.59
2018-03-11T17:15:02.012Z,920.66
2018-03-11T17:16:33.845Z,920.57
2018-03-11T17:18:05.678Z,920.52
2018-03-11T17:19:37.511Z,920.48
2018-03-11T17:21:09.345Z,920.50
2018-03-11T17:22:41.178Z,920.38
2018-03-11T17:24:13.110Z,920.28
2018-03-11T17:25:44.843Z,920.36
2018-03-11T17:27:16.679Z,920.32
2018-03-11T17:28:48.510Z,920.27
2018-03-11T17:30:20.643Z,920.32
2018-03-11T17:31:52.174Z,920.40
2018-03-11T17:33:24.005Z,920.40
2018-03-11T17:34:55.836Z,920.22
2018-03-11T17:36:27.768Z,920.22
2018-03-11T17:37:59.498Z,920.29
2018-03-11T17:39:31.327Z,920.34
2018-03-11T17:41:03.158Z,920.29
2018-03-11T17:42:35.035Z,920.34
2018-03-11T17:44:06.818Z,920.42
2018-03-11T17:45:38.707Z,920.40
2018-03-11T17:47:10.478Z,920.44
2018-03-11T17:48:42.461Z,920.40
2018-03-11T17:50:14.140Z,920.51
2018-03-11T17:51:45.968Z,920.27
2018-03-11T17:53:17.836Z,920.21
2018-03-11T17:54:49.631Z,920.18
2018-03-11T17:56:21.459Z,920.11
2018-03-11T17:57:53.490Z,920.19
2018-03-11T17:59:25.118Z,920.35
2018-03-11T18:00:56.948Z,920.39
2018-03-11T18:02:28.778Z,920.32
2018-03-11T18:05:32.438Z,920.09
2018-03-11T18:07:04.467Z,920.00
2018-03-11T18:08:36.098Z,920.05
2018-03-11T18:10:07.926Z,920.05
2018-03-11T18:11:39.757Z,920.03
2018-03-11T18:13:11.586Z,920.03
2018-03-11T18:14:43.416Z,920.00
2018-03-11T18:16:15.247Z,920.03
2018-03-11T18:17:47.120Z,920.13
2018-03-11T18:19:18.904Z,920.09
2018-03-11T18:20:50.734Z,920.09
2018-03-11T18:22:22.562Z,919.97
2018-03-11T18:23:54.591Z,919.98
2018-03-11T18:25:26.318Z,920.08
2018-03-11T18:26:58.045Z,920.00
2018-03-11T18:28:29.872Z,919.96
2018-03-11T18:30:01.701Z,920.22
2018-03-11T18:31:33.528Z,920.11
2018-03-11T18:33:05.557Z,920.08
2018-03-11T18:34:37.183Z,920.08
2018-03-11T18:36:09.010Z,920.02
2018-03-11T18:37:40.940Z,919.99
2018-03-11T18:39:12.665Z,919.95
2018-03-11T18:40:44.492Z,919.76
2018-03-11T18:42:16.321Z,919.91
2018-03-11T18:43:48.355Z,919.93
2018-03-11T18:45:19.976Z,919.88
2018-03-11T18:48:23.631Z,919.75
2018-03-11T18:49:55.559Z,919.79
2018-03-11T18:51:27.589Z,919.73
2018-03-11T18:52:59.114Z,919.68
2018-03-11T18:54:30.941Z,919.65
2018-03-11T18:56:02.767Z,919.77
2018-03-11T18:57:34.600Z,919.83
2018-03-11T18:59:06.421Z,919.88
2018-03-11T19:02:10.179Z,919.87
2018-03-11T19:03:41.923Z,919.84
2018-03-11T19:05:13.735Z,919.85
2018-03-11T19:06:45.756Z,919.86
2018-03-11T19:08:17.381Z,919.82
2018-03-11T19:11:21.037Z,919.87
2018-03-11T19:14:24.686Z,919.93
2018-03-11T19:15:56.513Z,919.91
2018-03-11T19:17:28.340Z,919.93
2018-03-11T19:19:00.167Z,919.95
2018-03-11T19:20:32.090Z,919.95
2018-03-11T19:22:03.816Z,919.95
2018-03-11T19:23:35.945Z,919.92
2018-03-11T19:25:07.468Z,919.96
2018-03-11T19:28:11.118Z,919.92
2018-03-11T19:29:43.170Z,919.91
2018-03-11T19:32:46.595Z,919.85
2018-03-11T19:34:18.626Z,919.86
2018-03-11T19:37:22.075Z,919.91
2018-03-11T19:38:53.896Z,919.84
2018-03-11T19:40:25.922Z,919.83
2018-03-11T19:43:29.372Z,919.79
2018-03-11T19:45:01.197Z,919.78
2018-03-11T19:46:33.021Z,919.73
2018-03-11T19:48:04.846Z,919.83
2018-03-11T19:49:36.671Z,919.80
2018-03-11T19:51:08.496Z,919.81
2018-03-11T19:52:40.322Z,919.87
2018-03-11T19:54:12.146Z,919.85